Time;durP1;ratioP1;P1;durP2;ratioP2;P2;SDS_P1;SDS_P2;PMS_P1;PMS_P2;Temp;Humidity;BMP_temperature;BMP_pressure;BME280_temperature;BME280_humidity;BME280_pressure;Samples;Min_cycle;Max_cycle;Signal;HPM_P1;HPM_P2
2022/03/17 00:01:32;;;;;;;26.52;16.40;;;;;;;;;;5011326;28;20037;-76
2022/03/17 00:03:58;;;;;;;26.38;16.67;;;;;;;;;;5011901;28;20069;-76
2022/03/17 00:06:24;;;;;;;26.83;15.82;;;;;;;;;;5021078;28;20042;-76
2022/03/17 00:08:51;;;;;;;26.55;15.60;;;;;;;;;;5011179;28;20045;-77
2022/03/17 00:11:17;;;;;;;24.50;15.70;;;;;;;;;;5026524;28;20045;-77
2022/03/17 00:13:43;;;;;;;24.75;15.85;;;;;;;;;;5011106;28;20513;-76
2022/03/17 00:16:10;;;;;;;27.50;15.93;;;;;;;;;;4994691;28;20093;-76
2022/03/17 00:18:37;;;;;;;27.60;17.55;;;;;;;;;;5011051;28;20038;-77
2022/03/17 00:21:03;;;;;;;27.25;15.88;;;;;;;;;;5011553;28;20073;-77
2022/03/17 00:23:29;;;;;;;27.70;16.30;;;;;;;;;;5010472;28;20041;-76
2022/03/17 00:25:56;;;;;;;26.92;17.35;;;;;;;;;;5011239;28;20428;-77
2022/03/17 00:28:22;;;;;;;25.25;15.27;;;;;;;;;;5010758;28;20041;-75
2022/03/17 00:44:18;;;;;;;26.00;16.20;;;;;;;;;;5028157;28;20048;-76
2022/03/17 00:46:44;;;;;;;25.08;16.30;;;;;;;;;;5009811;28;20086;-76
2022/03/17 00:49:12;;;;;;;25.58;16.00;;;;;;;;;;4994285;28;20037;-75
2022/03/17 00:51:40;;;;;;;27.60;17.08;;;;;;;;;;5018678;28;20049;-75
2022/03/17 00:54:06;;;;;;;27.33;17.58;;;;;;;;;;5010086;28;20061;-76
2022/03/17 00:56:32;;;;;;;25.55;17.50;;;;;;;;;;4993532;28;20045;-76
2022/03/17 00:58:58;;;;;;;26.05;16.00;;;;;;;;;;4994057;28;20061;-75
2022/03/17 01:01:24;;;;;;;28.88;18.25;;;;;;;;;;5027800;28;20042;-75
2022/03/17 01:03:51;;;;;;;27.30;17.27;;;;;;;;;;5010222;28;20398;-75
2022/03/17 01:06:17;;;;;;;26.20;17.60;;;;;;;;;;5027700;28;20303;-76
2022/03/17 01:08:43;;;;;;;26.58;17.25;;;;;;;;;;5009966;28;20036;-75
2022/03/17 01:11:09;;;;;;;26.80;18.33;;;;;;;;;;5010237;28;20124;-76
2022/03/17 01:13:35;;;;;;;27.35;18.23;;;;;;;;;;4993528;28;20034;-76
2022/03/17 01:16:01;;;;;;;29.83;18.52;;;;;;;;;;5010455;28;20120;-76
2022/03/17 01:18:27;;;;;;;27.83;17.38;;;;;;;;;;5027828;28;20076;-76
2022/03/17 01:20:53;;;;;;;28.15;18.20;;;;;;;;;;5009424;28;20045;-76
2022/03/17 01:23:19;;;;;;;28.35;18.15;;;;;;;;;;5009334;28;20045;-75
2022/03/17 01:25:46;;;;;;;27.50;17.65;;;;;;;;;;5010366;28;20452;-78
2022/03/17 01:28:12;;;;;;;28.50;18.10;;;;;;;;;;5006650;28;20045;-77
2022/03/17 01:30:38;;;;;;;29.38;18.77;;;;;;;;;;5009812;28;20406;-77
2022/03/17 01:33:04;;;;;;;29.83;20.00;;;;;;;;;;5009934;28;20044;-75
2022/03/17 01:35:30;;;;;;;32.50;19.92;;;;;;;;;;5009014;28;20037;-76
2022/03/17 01:37:56;;;;;;;31.05;19.70;;;;;;;;;;5009318;28;20056;-75
2022/03/17 01:40:22;;;;;;;30.70;20.42;;;;;;;;;;5004136;28;20053;-75
2022/03/17 01:42:49;;;;;;;31.48;20.35;;;;;;;;;;4977059;28;20398;-76
2022/03/17 01:45:16;;;;;;;31.83;20.13;;;;;;;;;;5009676;28;20482;-76
2022/03/17 01:47:44;;;;;;;35.15;20.05;;;;;;;;;;4993266;28;20049;-77
2022/03/17 01:50:14;;;;;;;31.00;20.15;;;;;;;;;;4993149;28;20045;-75
2022/03/17 01:52:41;;;;;;;30.45;19.70;;;;;;;;;;5019776;28;20045;-76
2022/03/17 01:55:08;;;;;;;31.98;20.20;;;;;;;;;;4993292;28;20054;-75
2022/03/17 01:57:34;;;;;;;33.72;21.27;;;;;;;;;;4993100;28;20037;-77
2022/03/17 02:00:01;;;;;;;34.20;21.55;;;;;;;;;;5027005;28;20037;-76
2022/03/17 02:02:27;;;;;;;30.73;19.98;;;;;;;;;;5009343;28;20049;-76
2022/03/17 02:04:53;;;;;;;35.20;22.35;;;;;;;;;;5009301;28;20042;-77
2022/03/17 02:07:20;;;;;;;36.10;22.05;;;;;;;;;;5027056;28;20033;-78
2022/03/17 02:09:48;;;;;;;33.38;21.70;;;;;;;;;;5009110;28;20041;-77
2022/03/17 02:14:59;;;;;;;34.15;22.23;;;;;;;;;;5008893;28;20398;-77
2022/03/17 02:17:27;;;;;;;36.15;23.05;;;;;;;;;;5009074;28;20045;-78
2022/03/17 02:19:54;;;;;;;35.83;22.83;;;;;;;;;;5008690;28;20080;-77
2022/03/17 02:22:21;;;;;;;35.67;23.05;;;;;;;;;;5009428;28;20370;-78
2022/03/17 02:27:34;;;;;;;34.50;21.63;;;;;;;;;;5026678;28;20041;-77
2022/03/17 02:30:03;;;;;;;37.70;23.20;;;;;;;;;;5026583;28;20037;-77
2022/03/17 02:32:29;;;;;;;40.30;21.35;;;;;;;;;;5009090;28;20095;-77
2022/03/17 02:34:55;;;;;;;37.03;22.50;;;;;;;;;;5008806;28;20041;-78
2022/03/17 02:37:22;;;;;;;34.45;22.15;;;;;;;;;;5009552;28;20041;-75
2022/03/17 02:39:48;;;;;;;34.67;22.65;;;;;;;;;;5026360;28;20038;-75
2022/03/17 02:42:14;;;;;;;35.95;21.92;;;;;;;;;;5008868;28;20038;-76
2022/03/17 02:44:41;;;;;;;37.58;23.13;;;;;;;;;;4992536;28;20578;-76
2022/03/17 02:47:07;;;;;;;40.40;22.60;;;;;;;;;;5011267;28;20038;-76
2022/03/17 02:49:33;;;;;;;37.08;23.35;;;;;;;;;;5012304;28;20435;-78
2022/03/17 02:52:00;;;;;;;37.05;23.27;;;;;;;;;;5011746;28;20068;-77
2022/03/17 02:54:26;;;;;;;36.30;22.67;;;;;;;;;;4995616;28;20049;-76
2022/03/17 02:56:52;;;;;;;37.35;22.98;;;;;;;;;;4995107;28;20066;-75
2022/03/17 02:59:18;;;;;;;39.20;24.85;;;;;;;;;;5012228;28;20037;-76
2022/03/17 03:01:44;;;;;;;36.88;24.50;;;;;;;;;;5005623;28;20090;-76
2022/03/17 03:04:13;;;;;;;38.42;23.55;;;;;;;;;;5022244;28;20081;-76
2022/03/17 03:06:39;;;;;;;39.42;23.60;;;;;;;;;;5010611;28;20059;-76
2022/03/17 03:09:05;;;;;;;41.35;24.67;;;;;;;;;;5012005;28;20045;-76
2022/03/17 03:11:31;;;;;;;40.40;24.75;;;;;;;;;;5029535;28;20556;-76
2022/03/17 03:13:57;;;;;;;37.42;23.73;;;;;;;;;;5029275;28;20045;-77
2022/03/17 03:16:24;;;;;;;38.72;24.83;;;;;;;;;;5011719;28;20033;-77
2022/03/17 03:18:50;;;;;;;39.70;25.70;;;;;;;;;;5011469;28;20118;-77
2022/03/17 03:21:16;;;;;;;43.08;25.63;;;;;;;;;;4995209;28;20048;-77
2022/03/17 03:23:42;;;;;;;45.50;25.58;;;;;;;;;;5010759;28;20041;-81
2022/03/17 03:26:08;;;;;;;43.33;25.95;;;;;;;;;;5029590;28;20037;-77
2022/03/17 03:28:34;;;;;;;47.22;27.38;;;;;;;;;;5011644;28;20091;-78
2022/03/17 03:31:00;;;;;;;47.97;28.45;;;;;;;;;;5011394;28;20474;-78
2022/03/17 03:33:26;;;;;;;47.95;28.60;;;;;;;;;;4995151;28;20453;-78
2022/03/17 03:38:36;;;;;;;49.72;29.13;;;;;;;;;;4996369;28;20038;-79
2022/03/17 03:41:03;;;;;;;53.55;30.38;;;;;;;;;;4995009;28;20120;-78
2022/03/17 03:43:29;;;;;;;56.08;31.52;;;;;;;;;;5028967;28;20029;-79
2022/03/17 03:45:55;;;;;;;55.85;30.52;;;;;;;;;;5011042;28;20037;-79
2022/03/17 03:48:21;;;;;;;54.30;30.23;;;;;;;;;;5011171;28;20033;-79
2022/03/17 03:50:48;;;;;;;52.00;29.40;;;;;;;;;;5028738;28;20042;-79
2022/03/17 03:53:14;;;;;;;52.05;30.85;;;;;;;;;;5010943;28;20117;-79
2022/03/17 03:55:40;;;;;;;57.03;30.65;;;;;;;;;;5028549;28;20053;-79
2022/03/17 03:58:06;;;;;;;58.92;30.77;;;;;;;;;;4993998;28;20118;-79
2022/03/17 04:00:33;;;;;;;58.45;29.95;;;;;;;;;;4994863;28;20125;-79
2022/03/17 04:03:00;;;;;;;59.55;31.08;;;;;;;;;;5011222;28;20045;-79
2022/03/17 04:05:27;;;;;;;56.30;29.05;;;;;;;;;;4994829;28;20048;-80
2022/03/17 04:07:56;;;;;;;60.72;31.60;;;;;;;;;;5010889;28;20041;-79
2022/03/17 04:10:23;;;;;;;62.00;31.52;;;;;;;;;;5011050;28;20041;-80
2022/03/17 04:12:49;;;;;;;66.57;31.40;;;;;;;;;;5010835;28;20041;-79
2022/03/17 04:15:15;;;;;;;64.43;31.20;;;;;;;;;;4995046;28;20652;-79
2022/03/17 04:17:41;;;;;;;65.93;30.45;;;;;;;;;;5011093;28;20118;-80
2022/03/17 04:20:09;;;;;;;60.95;30.55;;;;;;;;;;5010797;28;20037;-80
2022/03/17 04:22:35;;;;;;;41.05;21.75;;;;;;;;;;4978481;28;20117;-78
2022/03/17 04:25:01;;;;;;;23.30;11.93;;;;;;;;;;5010832;28;20049;-79
2022/03/17 04:27:27;;;;;;;16.08;9.93;;;;;;;;;;5028568;28;20038;-81
2022/03/17 04:29:54;;;;;;;16.17;9.95;;;;;;;;;;4994083;28;20114;-81
2022/03/17 04:32:20;;;;;;;17.48;10.25;;;;;;;;;;5010653;28;20045;-81
2022/03/17 04:34:46;;;;;;;17.25;10.40;;;;;;;;;;5028263;28;20041;-80
2022/03/17 04:37:13;;;;;;;17.10;10.82;;;;;;;;;;4994577;28;20049;-80
2022/03/17 04:39:39;;;;;;;19.70;10.85;;;;;;;;;;5010327;28;20038;-81
2022/03/17 04:42:05;;;;;;;15.98;9.85;;;;;;;;;;5011002;28;20398;-80
2022/03/17 04:44:31;;;;;;;17.67;10.13;;;;;;;;;;5010614;28;20045;-81
2022/03/17 04:46:57;;;;;;;18.83;10.27;;;;;;;;;;4994587;28;20065;-81
2022/03/17 04:49:23;;;;;;;16.58;10.40;;;;;;;;;;5028492;28;20120;-81
2022/03/17 04:51:50;;;;;;;17.05;10.60;;;;;;;;;;5028111;28;20038;-82
2022/03/17 04:54:16;;;;;;;17.20;9.63;;;;;;;;;;4994486;28;20056;-83
2022/03/17 04:56:43;;;;;;;14.02;9.27;;;;;;;;;;5010001;28;20116;-82
2022/03/17 04:59:09;;;;;;;15.60;9.77;;;;;;;;;;5010906;28;20052;-86
2022/03/17 05:01:35;;;;;;;17.40;9.65;;;;;;;;;;5004203;28;20132;-83
2022/03/17 05:04:01;;;;;;;17.85;10.40;;;;;;;;;;5009988;28;20445;-83
2022/03/17 05:06:28;;;;;;;15.93;10.00;;;;;;;;;;4993190;28;20033;-83
2022/03/17 05:08:54;;;;;;;18.25;9.63;;;;;;;;;;5009552;28;20045;-83
2022/03/17 05:11:20;;;;;;;17.02;10.38;;;;;;;;;;4993519;28;20546;-83
2022/03/17 05:13:51;;;;;;;20.50;9.20;;;;;;;;;;5010234;28;20475;-83
2022/03/17 05:16:18;;;;;;;18.55;9.75;;;;;;;;;;5010541;28;20128;-82
2022/03/17 05:18:44;;;;;;;19.85;10.40;;;;;;;;;;5009675;28;20078;-83
2022/03/17 05:21:10;;;;;;;19.48;10.45;;;;;;;;;;4993479;28;20049;-83
2022/03/17 05:23:38;;;;;;;18.90;9.95;;;;;;;;;;5027606;28;20046;-81
2022/03/17 05:26:04;;;;;;;21.17;10.48;;;;;;;;;;5028050;28;20049;-83
2022/03/17 05:28:32;;;;;;;25.05;10.30;;;;;;;;;;5010614;28;20402;-83
2022/03/17 05:30:58;;;;;;;21.75;10.52;;;;;;;;;;5009649;28;20049;-85
2022/03/17 05:33:24;;;;;;;22.40;9.90;;;;;;;;;;5009965;28;20038;-83
2022/03/17 05:35:50;;;;;;;23.80;10.18;;;;;;;;;;4994023;28;20046;-83
2022/03/17 05:38:17;;;;;;;20.88;10.23;;;;;;;;;;5010331;28;20170;-83
2022/03/17 05:40:44;;;;;;;19.05;9.75;;;;;;;;;;5009996;28;20045;-83
2022/03/17 05:43:10;;;;;;;20.63;8.98;;;;;;;;;;4993751;28;20042;-83
2022/03/17 05:45:37;;;;;;;20.27;8.88;;;;;;;;;;5027716;28;20041;-83
2022/03/17 05:48:05;;;;;;;20.17;8.85;;;;;;;;;;5027549;28;20048;-83
2022/03/17 05:50:32;;;;;;;19.95;8.93;;;;;;;;;;5009638;28;20060;-82
2022/03/17 05:52:58;;;;;;;23.70;8.57;;;;;;;;;;5009528;28;20029;-82
2022/03/17 05:55:25;;;;;;;24.00;7.85;;;;;;;;;;5027371;28;20046;-81
2022/03/17 05:57:53;;;;;;;19.02;7.10;;;;;;;;;;5027344;28;20482;-81
2022/03/17 06:00:21;;;;;;;15.90;6.50;;;;;;;;;;5010189;28;20398;-81
2022/03/17 06:02:47;;;;;;;16.27;6.80;;;;;;;;;;5009552;28;20396;-81
2022/03/17 06:05:14;;;;;;;15.90;5.95;;;;;;;;;;4993233;28;20040;-81
2022/03/17 06:07:40;;;;;;;17.60;6.13;;;;;;;;;;5009471;28;20045;-81
2022/03/17 06:10:08;;;;;;;19.75;6.57;;;;;;;;;;5027332;28;20037;-81
2022/03/17 06:12:34;;;;;;;17.10;5.28;;;;;;;;;;5010098;28;20041;-81
2022/03/17 06:15:01;;;;;;;16.20;4.75;;;;;;;;;;5009932;28;20566;-82
2022/03/17 06:17:38;;;;;;;14.68;4.47;;;;;;;;;;5009798;28;20041;-81
2022/03/17 06:20:04;;;;;;;16.42;4.93;;;;;;;;;;4993335;28;20037;-82
2022/03/17 06:22:30;;;;;;;14.77;3.75;;;;;;;;;;5008860;28;20041;-81
2022/03/17 06:24:56;;;;;;;10.48;3.38;;;;;;;;;;5009442;28;20048;-80
2022/03/17 06:27:24;;;;;;;14.55;3.70;;;;;;;;;;5010014;28;20055;-81
2022/03/17 06:29:50;;;;;;;13.82;3.70;;;;;;;;;;5010103;28;20046;-81
2022/03/17 06:32:16;;;;;;;17.35;3.20;;;;;;;;;;4993167;28;20083;-80
2022/03/17 06:34:43;;;;;;;11.90;2.83;;;;;;;;;;4993382;28;20337;-84
2022/03/17 06:37:09;;;;;;;12.95;2.90;;;;;;;;;;4993895;28;20482;-81
2022/03/17 06:39:35;;;;;;;13.25;2.90;;;;;;;;;;4992876;28;20042;-81
2022/03/17 06:42:01;;;;;;;14.90;2.72;;;;;;;;;;5009024;28;20047;-81
2022/03/17 06:44:27;;;;;;;13.80;3.05;;;;;;;;;;5009934;28;20041;-81
2022/03/17 06:46:53;;;;;;;18.92;2.55;;;;;;;;;;4993009;28;20094;-81
2022/03/17 06:49:19;;;;;;;16.50;2.92;;;;;;;;;;5009103;28;20030;-82
2022/03/17 06:51:45;;;;;;;13.18;3.13;;;;;;;;;;5025967;28;20045;-81
2022/03/17 06:54:12;;;;;;;12.80;2.63;;;;;;;;;;5008556;28;20061;-81
2022/03/17 06:56:38;;;;;;;15.10;2.80;;;;;;;;;;4992699;28;20041;-81
2022/03/17 06:59:04;;;;;;;20.50;2.75;;;;;;;;;;5025693;28;20041;-81
2022/03/17 07:01:30;;;;;;;14.10;2.30;;;;;;;;;;5008620;28;20122;-82
2022/03/17 07:03:56;;;;;;;14.90;2.60;;;;;;;;;;5008727;28;20045;-79
2022/03/17 07:06:22;;;;;;;12.55;1.83;;;;;;;;;;5008862;28;20046;-81
2022/03/17 07:08:48;;;;;;;13.57;1.83;;;;;;;;;;5008736;28;20492;-81
2022/03/17 07:11:14;;;;;;;13.50;2.17;;;;;;;;;;5008894;28;20503;-80
2022/03/17 07:13:40;;;;;;;15.43;2.40;;;;;;;;;;5008702;28;20084;-81
2022/03/17 07:16:07;;;;;;;12.18;1.70;;;;;;;;;;4992361;28;20151;-80
2022/03/17 07:18:33;;;;;;;10.07;1.30;;;;;;;;;;5008458;28;20077;-81
2022/03/17 07:20:59;;;;;;;9.70;1.85;;;;;;;;;;5025900;28;20056;-81
2022/03/17 07:23:25;;;;;;;12.18;1.50;;;;;;;;;;5008515;28;20045;-82
2022/03/17 07:25:53;;;;;;;10.80;1.63;;;;;;;;;;4991881;28;20046;-80
2022/03/17 07:28:21;;;;;;;11.20;1.75;;;;;;;;;;5008888;28;20549;-80
2022/03/17 07:30:47;;;;;;;16.58;2.92;;;;;;;;;;5008236;28;20052;-81
2022/03/17 07:33:13;;;;;;;10.88;1.83;;;;;;;;;;5009664;28;20041;-80
2022/03/17 07:35:40;;;;;;;17.00;2.13;;;;;;;;;;5011355;28;20049;-80
2022/03/17 07:38:06;;;;;;;12.40;2.10;;;;;;;;;;5010622;28;20033;-80
2022/03/17 07:40:33;;;;;;;12.85;2.22;;;;;;;;;;5029459;28;20037;-82
2022/03/17 07:43:00;;;;;;;9.90;1.60;;;;;;;;;;5011668;28;20482;-80
2022/03/17 07:45:26;;;;;;;12.80;1.88;;;;;;;;;;5029587;28;20041;-80
2022/03/17 07:47:52;;;;;;;19.17;2.08;;;;;;;;;;5011355;28;20042;-80
2022/03/17 07:50:19;;;;;;;12.35;2.22;;;;;;;;;;5011342;28;20041;-80
2022/03/17 07:52:45;;;;;;;13.63;1.42;;;;;;;;;;5028366;28;20438;-80
2022/03/17 07:55:12;;;;;;;12.88;1.70;;;;;;;;;;5011098;28;20103;-80
2022/03/17 07:57:40;;;;;;;11.70;1.70;;;;;;;;;;5011371;28;20045;-81
2022/03/17 08:00:07;;;;;;;9.88;1.70;;;;;;;;;;5011099;28;20656;-80
2022/03/17 08:02:33;;;;;;;16.17;1.75;;;;;;;;;;5011565;28;20491;-81
2022/03/17 08:05:01;;;;;;;17.58;1.80;;;;;;;;;;5011334;28;20041;-81
2022/03/17 08:07:28;;;;;;;11.50;1.80;;;;;;;;;;5006196;28;20052;-79
2022/03/17 08:09:54;;;;;;;12.85;1.75;;;;;;;;;;5011673;28;20402;-82
2022/03/17 08:12:22;;;;;;;10.32;1.33;;;;;;;;;;4995166;28;20391;-80
2022/03/17 08:14:50;;;;;;;13.25;1.63;;;;;;;;;;5011374;28;20421;-81
2022/03/17 08:17:16;;;;;;;11.60;1.50;;;;;;;;;;4995166;28;20049;-81
2022/03/17 08:19:42;;;;;;;13.93;2.40;;;;;;;;;;5011631;28;20041;-81
2022/03/17 08:22:08;;;;;;;14.75;2.05;;;;;;;;;;5011042;28;20557;-81
2022/03/17 08:24:34;;;;;;;12.93;2.33;;;;;;;;;;5011148;28;20041;-80
2022/03/17 08:27:02;;;;;;;13.50;1.63;;;;;;;;;;5011005;28;20090;-82
2022/03/17 08:29:29;;;;;;;11.07;1.58;;;;;;;;;;5029006;28;20468;-81
2022/03/17 08:31:55;;;;;;;13.27;2.03;;;;;;;;;;5063385;28;20463;-81
2022/03/17 08:34:21;;;;;;;11.98;1.90;;;;;;;;;;5028948;28;20041;-81
2022/03/17 08:36:50;;;;;;;16.33;2.13;;;;;;;;;;5010988;28;20397;-81
2022/03/17 08:39:16;;;;;;;15.52;1.88;;;;;;;;;;5028961;28;20038;-83
2022/03/17 08:41:42;;;;;;;16.25;1.77;;;;;;;;;;5010766;28;20079;-82
2022/03/17 08:44:08;;;;;;;15.50;2.40;;;;;;;;;;5028309;28;20112;-81
2022/03/17 08:49:19;;;;;;;14.18;2.28;;;;;;;;;;5013523;28;20113;-82
2022/03/17 08:51:45;;;;;;;10.93;1.48;;;;;;;;;;5018967;28;20475;-81
2022/03/17 08:54:12;;;;;;;12.95;1.70;;;;;;;;;;5027964;28;20052;-80
2022/03/17 08:56:38;;;;;;;12.32;1.98;;;;;;;;;;5010521;28;20137;-82
2022/03/17 08:59:05;;;;;;;16.20;1.80;;;;;;;;;;5010272;28;20087;-81
2022/03/17 09:01:32;;;;;;;10.77;1.83;;;;;;;;;;4994034;28;20037;-81
2022/03/17 09:03:58;;;;;;;15.52;3.58;;;;;;;;;;5010306;28;20041;-81
2022/03/17 09:06:24;;;;;;;17.02;3.65;;;;;;;;;;5010306;28;20498;-81
2022/03/17 09:08:50;;;;;;;13.35;3.45;;;;;;;;;;5027954;28;20046;-81
2022/03/17 09:11:16;;;;;;;10.88;1.73;;;;;;;;;;5010248;28;20525;-81
2022/03/17 09:13:43;;;;;;;15.60;3.10;;;;;;;;;;5027642;28;20041;-80
2022/03/17 09:16:09;;;;;;;22.13;6.85;;;;;;;;;;5010206;28;20048;-81
2022/03/17 09:18:35;;;;;;;23.83;5.70;;;;;;;;;;5010053;28;20144;-81
2022/03/17 09:21:01;;;;;;;14.60;3.45;;;;;;;;;;5027947;28;20041;-81
2022/03/17 09:23:29;;;;;;;14.57;2.80;;;;;;;;;;5010294;28;20475;-81
2022/03/17 09:25:55;;;;;;;13.85;3.10;;;;;;;;;;5010122;28;20117;-82
2022/03/17 09:28:22;;;;;;;8.95;1.75;;;;;;;;;;5027718;28;20094;-82
2022/03/17 09:30:50;;;;;;;9.82;2.33;;;;;;;;;;5009842;28;20442;-81
2022/03/17 09:33:17;;;;;;;8.48;2.20;;;;;;;;;;5019053;28;20097;-82
2022/03/17 09:35:43;;;;;;;10.85;1.77;;;;;;;;;;5009919;28;20114;-81
2022/03/17 09:38:10;;;;;;;7.57;1.75;;;;;;;;;;5010203;28;20453;-81
2022/03/17 09:40:36;;;;;;;12.05;1.40;;;;;;;;;;4993737;28;20079;-82
2022/03/17 09:43:19;;;;;;;10.32;1.80;;;;;;;;;;5027799;28;20044;-82
2022/03/17 09:45:50;;;;;;;5.93;1.17;;;;;;;;;;5009556;28;20145;-82
2022/03/17 09:48:17;;;;;;;6.80;1.33;;;;;;;;;;5010144;28;20077;-81
2022/03/17 09:50:44;;;;;;;8.57;1.30;;;;;;;;;;5027193;28;20045;-82
2022/03/17 09:53:10;;;;;;;10.15;2.45;;;;;;;;;;5010015;28;20034;-82
2022/03/17 09:55:37;;;;;;;11.55;3.70;;;;;;;;;;5026104;28;20156;-83
2022/03/17 09:58:06;;;;;;;11.15;1.80;;;;;;;;;;5009629;28;20043;-82
2022/03/17 10:00:47;;;;;;;7.63;1.52;;;;;;;;;;4993367;28;20383;-81
2022/03/17 10:03:18;;;;;;;12.30;1.85;;;;;;;;;;5009441;28;20043;-81
2022/03/17 10:05:45;;;;;;;11.38;2.00;;;;;;;;;;5008716;28;20077;-80
2022/03/17 10:08:11;;;;;;;14.93;2.17;;;;;;;;;;5027883;28;20128;-83
2022/03/17 10:10:38;;;;;;;10.25;2.15;;;;;;;;;;4993295;28;20050;-80
2022/03/17 10:13:14;;;;;;;10.98;1.90;;;;;;;;;;5019959;28;20042;-83
2022/03/17 10:15:41;;;;;;;9.85;1.80;;;;;;;;;;5009235;28;20071;-81
2022/03/17 10:18:36;;;;;;;7.47;1.90;;;;;;;;;;5009213;28;20041;-80
2022/03/17 10:21:05;;;;;;;12.27;2.00;;;;;;;;;;5026414;28;20406;-80
2022/03/17 10:23:31;;;;;;;11.38;2.25;;;;;;;;;;5009150;28;20237;-82
2022/03/17 10:25:57;;;;;;;7.63;1.80;;;;;;;;;;5009278;28;20402;-82
2022/03/17 10:28:26;;;;;;;7.22;1.60;;;;;;;;;;5026963;28;20068;-86
2022/03/17 10:31:06;;;;;;;10.30;1.48;;;;;;;;;;5009124;28;20474;-81
2022/03/17 10:33:33;;;;;;;9.68;1.80;;;;;;;;;;5007652;28;20037;-80
2022/03/17 10:36:20;;;;;;;11.80;2.10;;;;;;;;;;5026540;28;20038;-81
2022/03/17 10:38:48;;;;;;;9.43;1.85;;;;;;;;;;5009186;28;20517;-81
2022/03/17 10:41:15;;;;;;;5.90;1.75;;;;;;;;;;5008814;28;20087;-81
2022/03/17 10:43:42;;;;;;;9.10;1.58;;;;;;;;;;5008951;28;20098;-81
2022/03/17 10:46:11;;;;;;;13.07;1.90;;;;;;;;;;5061007;28;20041;-83
2022/03/17 10:48:52;;;;;;;7.25;1.60;;;;;;;;;;5009035;28;20057;-84
2022/03/17 10:51:31;;;;;;;10.15;1.60;;;;;;;;;;5018095;28;20518;-81
2022/03/17 10:54:20;;;;;;;9.38;1.55;;;;;;;;;;5007495;28;20416;-79
2022/03/17 10:57:05;;;;;;;9.35;2.00;;;;;;;;;;5008397;28;20048;-81
2022/03/17 10:59:42;;;;;;;8.73;1.67;;;;;;;;;;5026703;28;20036;-89
2022/03/17 11:02:09;;;;;;;10.13;1.70;;;;;;;;;;5008598;28;20055;-81
2022/03/17 11:04:37;;;;;;;10.13;1.80;;;;;;;;;;5008670;28;20042;-80
2022/03/17 11:07:08;;;;;;;10.05;2.10;;;;;;;;;;4993453;28;20383;-81
2022/03/17 11:09:38;;;;;;;8.23;1.63;;;;;;;;;;5012238;28;20073;-78
2022/03/17 11:12:06;;;;;;;8.65;2.10;;;;;;;;;;5112699;27;20046;-81
2022/03/17 11:14:32;;;;;;;10.77;1.95;;;;;;;;;;5012219;28;20490;-79
2022/03/17 11:17:01;;;;;;;9.35;2.00;;;;;;;;;;5012018;28;20094;-80
2022/03/17 11:19:27;;;;;;;12.60;2.03;;;;;;;;;;5012176;28;20509;-79
2022/03/17 11:22:10;;;;;;;9.50;1.98;;;;;;;;;;4995873;28;20387;-80
2022/03/17 11:24:37;;;;;;;10.40;1.90;;;;;;;;;;5029564;28;20049;-80
2022/03/17 11:27:08;;;;;;;8.30;1.90;;;;;;;;;;5012018;28;20041;-80
2022/03/17 11:29:54;;;;;;;8.02;1.80;;;;;;;;;;5011998;28;20094;-79
2022/03/17 11:32:31;;;;;;;10.00;2.03;;;;;;;;;;5011866;28;20049;-80
2022/03/17 11:35:20;;;;;;;8.07;1.92;;;;;;;;;;5029858;28;20041;-81
2022/03/17 11:37:46;;;;;;;9.43;1.80;;;;;;;;;;5011642;28;20048;-80
2022/03/17 11:40:14;;;;;;;10.77;1.90;;;;;;;;;;5011889;28;20045;-79
2022/03/17 11:42:41;;;;;;;10.95;1.77;;;;;;;;;;5029827;28;20049;-79
2022/03/17 11:45:13;;;;;;;7.88;1.83;;;;;;;;;;4994923;28;20037;-79
2022/03/17 11:47:48;;;;;;;10.32;1.85;;;;;;;;;;5011293;28;20098;-80
2022/03/17 11:50:24;;;;;;;8.63;1.92;;;;;;;;;;5011591;28;20042;-79
2022/03/17 11:52:51;;;;;;;8.52;1.85;;;;;;;;;;5008873;28;20085;-78
2022/03/17 11:55:37;;;;;;;11.90;2.65;;;;;;;;;;5028953;28;20110;-79
2022/03/17 11:58:25;;;;;;;11.77;1.92;;;;;;;;;;4993131;28;20041;-79
2022/03/17 12:00:54;;;;;;;11.10;2.28;;;;;;;;;;5029018;28;20052;-80
2022/03/17 12:03:30;;;;;;;9.95;2.05;;;;;;;;;;5011573;28;20454;-79
2022/03/17 12:06:08;;;;;;;10.73;2.28;;;;;;;;;;4993291;28;20055;-80
2022/03/17 12:08:38;;;;;;;8.43;2.17;;;;;;;;;;5011223;28;20066;-80
2022/03/17 12:11:09;;;;;;;12.55;2.58;;;;;;;;;;5011275;28;20042;-79
2022/03/17 12:13:36;;;;;;;11.32;2.47;;;;;;;;;;5010979;28;20046;-79
2022/03/17 12:16:03;;;;;;;9.95;2.10;;;;;;;;;;5011004;28;20060;-80
2022/03/17 12:18:29;;;;;;;10.07;1.85;;;;;;;;;;4994522;28;20041;-79
2022/03/17 12:20:56;;;;;;;13.27;2.50;;;;;;;;;;4996688;28;20033;-78
2022/03/17 12:23:42;;;;;;;11.18;2.17;;;;;;;;;;5029394;28;20042;-76
2022/03/17 12:26:08;;;;;;;11.20;2.78;;;;;;;;;;5006982;28;20038;-77
2022/03/17 12:28:34;;;;;;;7.40;1.83;;;;;;;;;;5011402;28;20049;-79
2022/03/17 12:31:00;;;;;;;8.05;1.92;;;;;;;;;;5011092;28;20525;-79
2022/03/17 12:33:26;;;;;;;8.20;1.60;;;;;;;;;;5011546;28;20078;-79
2022/03/17 12:36:06;;;;;;;14.73;2.20;;;;;;;;;;5011615;28;20041;-78
2022/03/17 12:38:34;;;;;;;8.88;1.65;;;;;;;;;;5029158;28;20045;-78
2022/03/17 12:41:00;;;;;;;7.97;1.58;;;;;;;;;;5010549;28;20098;-79
2022/03/17 12:43:26;;;;;;;12.23;2.20;;;;;;;;;;4994314;28;20041;-79
2022/03/17 12:45:53;;;;;;;9.38;2.08;;;;;;;;;;5010403;28;20077;-79
2022/03/17 12:48:20;;;;;;;8.98;2.53;;;;;;;;;;4995706;28;20513;-79
2022/03/17 12:50:46;;;;;;;8.00;1.80;;;;;;;;;;5021646;28;20046;-78
2022/03/17 12:53:13;;;;;;;9.73;1.70;;;;;;;;;;5011129;28;20037;-79
2022/03/17 12:55:39;;;;;;;14.40;2.42;;;;;;;;;;5011234;28;20065;-79
2022/03/17 12:58:05;;;;;;;9.00;1.55;;;;;;;;;;5011726;28;20045;-79
2022/03/17 13:00:32;;;;;;;10.27;1.80;;;;;;;;;;5011615;28;20056;-79
2022/03/17 13:02:59;;;;;;;8.20;1.45;;;;;;;;;;5013430;28;20428;-78
2022/03/17 13:08:14;;;;;;;5.30;1.08;;;;;;;;;;5011439;28;20042;-78
2022/03/17 13:16:11;;;;;;;6.13;1.35;;;;;;;;;;5010046;28;20045;-79
2022/03/17 13:18:45;;;;;;;6.40;1.38;;;;;;;;;;5011481;28;20076;-80
2022/03/17 13:21:15;;;;;;;8.55;1.30;;;;;;;;;;5009881;28;20034;-78
2022/03/17 13:23:41;;;;;;;10.40;1.58;;;;;;;;;;5009889;28;20142;-79
2022/03/17 13:26:07;;;;;;;10.10;1.42;;;;;;;;;;5011153;28;20034;-78
2022/03/17 13:28:34;;;;;;;7.97;1.35;;;;;;;;;;5010295;28;20102;-79
2022/03/17 13:31:00;;;;;;;6.40;1.10;;;;;;;;;;5009579;28;20363;-80
2022/03/17 13:33:30;;;;;;;6.35;1.27;;;;;;;;;;4995063;28;20048;-78
2022/03/17 13:35:57;;;;;;;7.35;1.30;;;;;;;;;;5011232;28;20069;-79
2022/03/17 13:38:30;;;;;;;4.60;0.85;;;;;;;;;;5010998;28;20049;-79
2022/03/17 13:40:57;;;;;;;6.82;0.98;;;;;;;;;;5010540;28;20052;-80
2022/03/17 13:43:33;;;;;;;9.63;1.80;;;;;;;;;;5011645;28;20048;-78
2022/03/17 13:46:01;;;;;;;4.45;0.93;;;;;;;;;;5004233;28;20087;-79
2022/03/17 13:48:28;;;;;;;5.88;0.82;;;;;;;;;;5010995;28;20041;-78
2022/03/17 13:50:55;;;;;;;11.82;1.30;;;;;;;;;;4994325;28;20049;-79
2022/03/17 13:53:29;;;;;;;6.53;0.98;;;;;;;;;;5011219;28;20039;-78
2022/03/17 13:55:56;;;;;;;8.43;1.10;;;;;;;;;;5011501;28;20109;-79
2022/03/17 13:58:22;;;;;;;8.43;1.10;;;;;;;;;;5011630;28;20050;-78
2022/03/17 14:00:49;;;;;;;4.78;1.20;;;;;;;;;;4995017;28;20038;-79
2022/03/17 14:03:23;;;;;;;7.55;1.17;;;;;;;;;;5011672;28;20171;-79
2022/03/17 14:06:22;;;;;;;6.15;1.10;;;;;;;;;;5009468;28;20052;-79
2022/03/17 14:08:53;;;;;;;5.60;1.08;;;;;;;;;;4991040;28;20061;-79
2022/03/17 14:11:20;;;;;;;6.18;1.10;;;;;;;;;;5009984;28;20128;-75
2022/03/17 14:13:48;;;;;;;7.22;1.20;;;;;;;;;;5009523;28;20037;-79
2022/03/17 14:16:15;;;;;;;5.68;1.20;;;;;;;;;;5027385;28;20037;-79
2022/03/17 14:18:42;;;;;;;5.50;0.82;;;;;;;;;;5009275;28;20127;-79
2022/03/17 14:21:09;;;;;;;8.43;1.20;;;;;;;;;;4993089;28;20406;-79
2022/03/17 14:26:22;;;;;;;4.65;0.98;;;;;;;;;;5009167;28;20049;-79
2022/03/17 14:28:48;;;;;;;4.35;0.82;;;;;;;;;;5008988;28;20041;-79
2022/03/17 14:31:17;;;;;;;6.05;0.90;;;;;;;;;;5008914;28;20041;-79
2022/03/17 14:33:44;;;;;;;6.80;1.33;;;;;;;;;;4992857;28;20046;-77
2022/03/17 14:36:11;;;;;;;7.75;0.90;;;;;;;;;;4992583;28;20068;-79
2022/03/17 14:38:38;;;;;;;5.95;1.20;;;;;;;;;;5026961;28;20521;-79
2022/03/17 14:41:06;;;;;;;5.70;1.00;;;;;;;;;;4992135;28;20255;-79
2022/03/17 14:43:32;;;;;;;4.95;0.77;;;;;;;;;;5012063;28;20064;-79
2022/03/17 14:45:58;;;;;;;6.43;1.08;;;;;;;;;;5012047;28;20045;-79
2022/03/17 14:48:24;;;;;;;5.50;0.80;;;;;;;;;;5012491;28;20498;-79
2022/03/17 14:50:54;;;;;;;4.93;0.85;;;;;;;;;;5011349;28;21015;-79
2022/03/17 14:53:20;;;;;;;5.85;0.93;;;;;;;;;;4996047;28;20116;-79
2022/03/17 14:55:47;;;;;;;8.27;1.05;;;;;;;;;;4996088;28;20133;-79
2022/03/17 14:58:13;;;;;;;8.30;0.80;;;;;;;;;;4995775;28;20069;-79
2022/03/17 15:00:40;;;;;;;8.40;1.05;;;;;;;;;;5012090;28;20041;-79
2022/03/17 15:03:06;;;;;;;7.95;0.85;;;;;;;;;;5012065;28;20049;-79
2022/03/17 15:05:32;;;;;;;4.97;0.70;;;;;;;;;;5012491;28;20029;-79
2022/03/17 15:07:58;;;;;;;5.47;1.20;;;;;;;;;;4996080;28;20048;-79